sensor_id;sensor_type;location;lat;lon;timestamp;P1;durP1;ratioP1;P2;durP2;ratioP2
12476;SDS011;6303;51.504;6.300;2023-06-26T00:00:31;6.75;;;6.25;;
12476;SDS011;6303;51.504;6.300;2023-06-26T00:02:58;6.35;;;5.85;;
12476;SDS011;6303;51.504;6.300;2023-06-26T00:05:25;6.85;;;6.25;;
12476;SDS011;6303;51.504;6.300;2023-06-26T00:07:53;6.53;;;6.03;;
12476;SDS011;6303;51.504;6.300;2023-06-26T00:10:21;6.88;;;6.25;;
12476;SDS011;6303;51.504;6.300;2023-06-26T00:12:48;6.90;;;6.20;;
12476;SDS011;6303;51.504;6.300;2023-06-26T00:15:15;7.40;;;6.30;;
12476;SDS011;6303;51.504;6.300;2023-06-26T00:17:42;7.18;;;6.47;;
12476;SDS011;6303;51.504;6.300;2023-06-26T00:20:10;7.07;;;6.47;;
12476;SDS011;6303;51.504;6.300;2023-06-26T00:22:39;6.88;;;6.30;;
12476;SDS011;6303;51.504;6.300;2023-06-26T00:25:06;6.68;;;6.18;;
12476;SDS011;6303;51.504;6.300;2023-06-26T00:27:35;7.05;;;6.45;;
12476;SDS011;6303;51.504;6.300;2023-06-26T00:30:03;6.65;;;6.15;;
12476;SDS011;6303;51.504;6.300;2023-06-26T00:32:31;6.72;;;6.13;;
12476;SDS011;6303;51.504;6.300;2023-06-26T00:35:01;6.40;;;5.95;;
12476;SDS011;6303;51.504;6.300;2023-06-26T00:37:28;7.13;;;6.53;;
12476;SDS011;6303;51.504;6.300;2023-06-26T00:39:55;6.97;;;6.22;;
12476;SDS011;6303;51.504;6.300;2023-06-26T00:42:22;7.00;;;6.50;;
12476;SDS011;6303;51.504;6.300;2023-06-26T00:44:50;7.10;;;6.50;;
12476;SDS011;6303;51.504;6.300;2023-06-26T00:47:17;6.72;;;6.10;;
12476;SDS011;6303;51.504;6.300;2023-06-26T00:49:45;6.70;;;6.10;;
12476;SDS011;6303;51.504;6.300;2023-06-26T00:52:12;7.28;;;6.50;;
12476;SDS011;6303;51.504;6.300;2023-06-26T00:54:40;7.03;;;6.43;;
12476;SDS011;6303;51.504;6.300;2023-06-26T00:57:08;6.68;;;6.00;;
12476;SDS011;6303;51.504;6.300;2023-06-26T00:59:35;7.32;;;6.68;;
12476;SDS011;6303;51.504;6.300;2023-06-26T01:02:04;7.07;;;6.47;;
12476;SDS011;6303;51.504;6.300;2023-06-26T01:04:32;6.97;;;6.38;;
12476;SDS011;6303;51.504;6.300;2023-06-26T01:07:00;7.40;;;6.80;;
12476;SDS011;6303;51.504;6.300;2023-06-26T01:09:29;6.65;;;6.05;;
12476;SDS011;6303;51.504;6.300;2023-06-26T01:11:57;6.50;;;5.90;;
12476;SDS011;6303;51.504;6.300;2023-06-26T01:14:24;7.10;;;6.43;;
12476;SDS011;6303;51.504;6.300;2023-06-26T01:16:51;6.90;;;6.30;;
12476;SDS011;6303;51.504;6.300;2023-06-26T01:19:24;6.85;;;6.35;;
12476;SDS011;6303;51.504;6.300;2023-06-26T01:21:56;6.53;;;6.03;;
12476;SDS011;6303;51.504;6.300;2023-06-26T01:24:30;6.72;;;6.13;;
12476;SDS011;6303;51.504;6.300;2023-06-26T01:27:03;7.07;;;6.47;;
12476;SDS011;6303;51.504;6.300;2023-06-26T01:29:32;7.10;;;6.50;;
12476;SDS011;6303;51.504;6.300;2023-06-26T01:32:00;6.65;;;6.05;;
12476;SDS011;6303;51.504;6.300;2023-06-26T01:34:27;7.15;;;6.50;;
12476;SDS011;6303;51.504;6.300;2023-06-26T01:36:55;6.75;;;6.25;;
12476;SDS011;6303;51.504;6.300;2023-06-26T01:39:24;7.10;;;6.50;;
12476;SDS011;6303;51.504;6.300;2023-06-26T01:41:51;7.53;;;6.70;;
12476;SDS011;6303;51.504;6.300;2023-06-26T01:44:23;7.18;;;6.57;;
12476;SDS011;6303;51.504;6.300;2023-06-26T01:47:00;7.28;;;6.68;;
12476;SDS011;6303;51.504;6.300;2023-06-26T01:49:33;8.18;;;7.03;;
12476;SDS011;6303;51.504;6.300;2023-06-26T01:52:11;7.22;;;6.63;;
12476;SDS011;6303;51.504;6.300;2023-06-26T01:54:45;7.65;;;7.00;;
12476;SDS011;6303;51.504;6.300;2023-06-26T01:57:18;7.00;;;6.40;;
12476;SDS011;6303;51.504;6.300;2023-06-26T01:59:49;7.53;;;6.85;;
12476;SDS011;6303;51.504;6.300;2023-06-26T02:02:18;8.80;;;7.03;;
12476;SDS011;6303;51.504;6.300;2023-06-26T02:04:45;7.88;;;7.10;;
12476;SDS011;6303;51.504;6.300;2023-06-26T02:07:14;7.85;;;7.15;;
12476;SDS011;6303;51.504;6.300;2023-06-26T02:09:41;8.18;;;7.45;;
12476;SDS011;6303;51.504;6.300;2023-06-26T02:12:09;7.60;;;7.00;;
12476;SDS011;6303;51.504;6.300;2023-06-26T02:14:39;8.18;;;7.50;;
12476;SDS011;6303;51.504;6.300;2023-06-26T02:17:08;8.30;;;7.57;;
12476;SDS011;6303;51.504;6.300;2023-06-26T02:19:35;7.93;;;7.18;;
12476;SDS011;6303;51.504;6.300;2023-06-26T02:22:05;8.50;;;7.70;;
12476;SDS011;6303;51.504;6.300;2023-06-26T02:24:32;7.95;;;7.15;;
12476;SDS011;6303;51.504;6.300;2023-06-26T02:26:59;8.02;;;7.32;;
12476;SDS011;6303;51.504;6.300;2023-06-26T02:29:26;8.65;;;7.60;;
12476;SDS011;6303;51.504;6.300;2023-06-26T02:31:53;7.97;;;6.97;;
12476;SDS011;6303;51.504;6.300;2023-06-26T02:34:23;8.27;;;7.47;;
12476;SDS011;6303;51.504;6.300;2023-06-26T02:36:50;8.20;;;7.43;;
12476;SDS011;6303;51.504;6.300;2023-06-26T02:39:19;7.45;;;6.78;;
12476;SDS011;6303;51.504;6.300;2023-06-26T02:41:47;7.65;;;6.95;;
12476;SDS011;6303;51.504;6.300;2023-06-26T02:44:15;7.50;;;6.90;;
12476;SDS011;6303;51.504;6.300;2023-06-26T02:46:42;7.78;;;7.13;;
12476;SDS011;6303;51.504;6.300;2023-06-26T02:49:09;8.00;;;7.30;;
12476;SDS011;6303;51.504;6.300;2023-06-26T02:51:38;7.53;;;6.82;;
12476;SDS011;6303;51.504;6.300;2023-06-26T02:54:12;7.60;;;7.00;;
12476;SDS011;6303;51.504;6.300;2023-06-26T02:56:44;7.35;;;6.65;;
12476;SDS011;6303;51.504;6.300;2023-06-26T02:59:11;6.95;;;6.38;;
12476;SDS011;6303;51.504;6.300;2023-06-26T03:01:38;7.00;;;6.30;;
12476;SDS011;6303;51.504;6.300;2023-06-26T03:04:05;7.07;;;6.38;;
12476;SDS011;6303;51.504;6.300;2023-06-26T03:06:33;6.80;;;6.20;;
12476;SDS011;6303;51.504;6.300;2023-06-26T03:09:01;6.68;;;6.07;;
12476;SDS011;6303;51.504;6.300;2023-06-26T03:11:30;6.70;;;6.10;;
12476;SDS011;6303;51.504;6.300;2023-06-26T03:13:57;6.65;;;6.05;;
12476;SDS011;6303;51.504;6.300;2023-06-26T03:16:25;6.40;;;5.90;;
12476;SDS011;6303;51.504;6.300;2023-06-26T03:18:52;6.50;;;5.65;;
12476;SDS011;6303;51.504;6.300;2023-06-26T03:21:19;6.10;;;5.50;;
12476;SDS011;6303;51.504;6.300;2023-06-26T03:23:46;6.40;;;5.75;;
12476;SDS011;6303;51.504;6.300;2023-06-26T03:26:15;6.20;;;5.55;;
12476;SDS011;6303;51.504;6.300;2023-06-26T03:28:44;6.15;;;5.63;;
12476;SDS011;6303;51.504;6.300;2023-06-26T03:31:11;6.10;;;5.60;;
12476;SDS011;6303;51.504;6.300;2023-06-26T03:33:40;6.00;;;5.50;;
12476;SDS011;6303;51.504;6.300;2023-06-26T03:36:07;6.15;;;5.55;;
12476;SDS011;6303;51.504;6.300;2023-06-26T03:38:34;6.10;;;5.53;;
12476;SDS011;6303;51.504;6.300;2023-06-26T03:41:01;6.05;;;5.55;;
12476;SDS011;6303;51.504;6.300;2023-06-26T03:43:30;5.40;;;5.00;;
12476;SDS011;6303;51.504;6.300;2023-06-26T03:46:17;5.50;;;4.97;;
12476;SDS011;6303;51.504;6.300;2023-06-26T03:48:46;6.00;;;5.40;;
12476;SDS011;6303;51.504;6.300;2023-06-26T03:51:13;6.85;;;5.38;;
12476;SDS011;6303;51.504;6.300;2023-06-26T03:53:40;6.28;;;5.55;;
12476;SDS011;6303;51.504;6.300;2023-06-26T03:56:07;6.10;;;5.20;;
12476;SDS011;6303;51.504;6.300;2023-06-26T03:58:36;7.70;;;5.10;;
12476;SDS011;6303;51.504;6.300;2023-06-26T04:01:03;5.55;;;5.05;;
12476;SDS011;6303;51.504;6.300;2023-06-26T04:03:30;5.97;;;4.90;;
12476;SDS011;6303;51.504;6.300;2023-06-26T04:05:57;6.93;;;5.15;;
12476;SDS011;6303;51.504;6.300;2023-06-26T04:08:24;5.35;;;4.68;;
12476;SDS011;6303;51.504;6.300;2023-06-26T04:10:52;5.53;;;5.00;;
12476;SDS011;6303;51.504;6.300;2023-06-26T04:13:20;6.25;;;4.88;;
12476;SDS011;6303;51.504;6.300;2023-06-26T04:15:48;5.18;;;4.68;;
12476;SDS011;6303;51.504;6.300;2023-06-26T04:18:15;5.20;;;4.70;;
12476;SDS011;6303;51.504;6.300;2023-06-26T04:23:30;5.53;;;4.70;;
12476;SDS011;6303;51.504;6.300;2023-06-26T04:25:58;6.65;;;4.70;;
12476;SDS011;6303;51.504;6.300;2023-06-26T04:28:25;5.80;;;4.28;;
12476;SDS011;6303;51.504;6.300;2023-06-26T04:30:53;5.30;;;4.25;;
12476;SDS011;6303;51.504;6.300;2023-06-26T04:33:20;5.10;;;4.60;;
12476;SDS011;6303;51.504;6.300;2023-06-26T04:35:48;6.30;;;4.68;;
12476;SDS011;6303;51.504;6.300;2023-06-26T04:38:15;5.38;;;4.88;;
12476;SDS011;6303;51.504;6.300;2023-06-26T04:40:42;4.80;;;4.40;;
12476;SDS011;6303;51.504;6.300;2023-06-26T04:43:10;5.60;;;5.10;;
12476;SDS011;6303;51.504;6.300;2023-06-26T04:45:37;5.82;;;4.80;;
12476;SDS011;6303;51.504;6.300;2023-06-26T04:48:05;5.00;;;4.50;;
12476;SDS011;6303;51.504;6.300;2023-06-26T04:50:34;7.03;;;4.97;;
12476;SDS011;6303;51.504;6.300;2023-06-26T04:53:01;5.07;;;4.68;;
12476;SDS011;6303;51.504;6.300;2023-06-26T04:55:28;7.15;;;4.70;;
12476;SDS011;6303;51.504;6.300;2023-06-26T04:57:55;7.03;;;5.15;;
12476;SDS011;6303;51.504;6.300;2023-06-26T05:00:22;7.45;;;4.57;;
12476;SDS011;6303;51.504;6.300;2023-06-26T05:02:50;5.93;;;4.28;;
12476;SDS011;6303;51.504;6.300;2023-06-26T05:05:25;5.65;;;4.68;;
12476;SDS011;6303;51.504;6.300;2023-06-26T05:07:53;6.10;;;4.82;;
12476;SDS011;6303;51.504;6.300;2023-06-26T05:10:20;5.32;;;4.68;;
12476;SDS011;6303;51.504;6.300;2023-06-26T05:12:47;5.55;;;4.63;;
12476;SDS011;6303;51.504;6.300;2023-06-26T05:15:14;6.38;;;4.40;;
12476;SDS011;6303;51.504;6.300;2023-06-26T05:17:41;10.48;;;5.63;;
12476;SDS011;6303;51.504;6.300;2023-06-26T05:20:09;8.43;;;4.43;;
12476;SDS011;6303;51.504;6.300;2023-06-26T05:22:38;12.00;;;5.18;;
12476;SDS011;6303;51.504;6.300;2023-06-26T05:25:07;8.30;;;5.57;;
12476;SDS011;6303;51.504;6.300;2023-06-26T05:27:36;53.92;;;17.23;;
12476;SDS011;6303;51.504;6.300;2023-06-26T05:30:04;40.38;;;14.48;;
12476;SDS011;6303;51.504;6.300;2023-06-26T05:32:32;31.30;;;11.70;;
12476;SDS011;6303;51.504;6.300;2023-06-26T05:35:02;19.48;;;8.20;;
12476;SDS011;6303;51.504;6.300;2023-06-26T05:37:30;17.17;;;7.20;;
12476;SDS011;6303;51.504;6.300;2023-06-26T05:40:01;21.92;;;7.50;;
12476;SDS011;6303;51.504;6.300;2023-06-26T05:42:29;11.10;;;6.13;;
12476;SDS011;6303;51.504;6.300;2023-06-26T05:44:57;11.27;;;5.93;;
12476;SDS011;6303;51.504;6.300;2023-06-26T05:47:24;9.68;;;5.60;;
12476;SDS011;6303;51.504;6.300;2023-06-26T05:49:51;10.77;;;5.88;;
12476;SDS011;6303;51.504;6.300;2023-06-26T05:52:18;10.70;;;5.60;;
12476;SDS011;6303;51.504;6.300;2023-06-26T05:54:46;10.20;;;5.13;;
12476;SDS011;6303;51.504;6.300;2023-06-26T05:57:14;9.20;;;5.20;;
12476;SDS011;6303;51.504;6.300;2023-06-26T05:59:42;8.77;;;4.72;;
12476;SDS011;6303;51.504;6.300;2023-06-26T06:02:10;7.72;;;4.88;;
12476;SDS011;6303;51.504;6.300;2023-06-26T06:04:38;5.90;;;4.90;;
12476;SDS011;6303;51.504;6.300;2023-06-26T06:07:05;8.93;;;4.70;;
12476;SDS011;6303;51.504;6.300;2023-06-26T06:09:32;6.72;;;4.38;;
12476;SDS011;6303;51.504;6.300;2023-06-26T06:11:59;8.20;;;5.05;;
12476;SDS011;6303;51.504;6.300;2023-06-26T06:14:28;6.93;;;4.80;;
12476;SDS011;6303;51.504;6.300;2023-06-26T06:16:55;6.13;;;4.65;;
12476;SDS011;6303;51.504;6.300;2023-06-26T06:19:22;8.13;;;5.50;;
12476;SDS011;6303;51.504;6.300;2023-06-26T06:21:49;7.03;;;4.78;;
12476;SDS011;6303;51.504;6.300;2023-06-26T06:24:16;9.48;;;5.00;;
12476;SDS011;6303;51.504;6.300;2023-06-26T06:26:43;7.30;;;4.55;;
12476;SDS011;6303;51.504;6.300;2023-06-26T06:29:10;13.57;;;5.57;;
12476;SDS011;6303;51.504;6.300;2023-06-26T06:31:39;10.13;;;4.70;;
12476;SDS011;6303;51.504;6.300;2023-06-26T06:34:06;10.57;;;5.28;;
12476;SDS011;6303;51.504;6.300;2023-06-26T06:36:33;11.00;;;4.90;;
12476;SDS011;6303;51.504;6.300;2023-06-26T06:39:00;10.63;;;5.38;;
12476;SDS011;6303;51.504;6.300;2023-06-26T06:41:28;8.65;;;4.82;;
12476;SDS011;6303;51.504;6.300;2023-06-26T06:43:55;8.63;;;4.50;;
12476;SDS011;6303;51.504;6.300;2023-06-26T06:46:22;9.60;;;5.00;;
12476;SDS011;6303;51.504;6.300;2023-06-26T06:48:53;7.32;;;4.43;;
12476;SDS011;6303;51.504;6.300;2023-06-26T06:51:21;9.05;;;4.95;;
12476;SDS011;6303;51.504;6.300;2023-06-26T06:53:48;10.73;;;5.20;;
12476;SDS011;6303;51.504;6.300;2023-06-26T06:56:15;10.45;;;4.88;;
12476;SDS011;6303;51.504;6.300;2023-06-26T06:58:42;9.48;;;4.93;;
12476;SDS011;6303;51.504;6.300;2023-06-26T07:01:11;12.05;;;4.70;;
12476;SDS011;6303;51.504;6.300;2023-06-26T07:03:38;8.13;;;4.88;;
12476;SDS011;6303;51.504;6.300;2023-06-26T07:06:07;9.13;;;4.85;;
12476;SDS011;6303;51.504;6.300;2023-06-26T07:08:34;7.97;;;4.30;;
12476;SDS011;6303;51.504;6.300;2023-06-26T07:11:01;9.18;;;4.65;;
12476;SDS011;6303;51.504;6.300;2023-06-26T07:13:28;9.30;;;4.75;;
12476;SDS011;6303;51.504;6.300;2023-06-26T07:15:55;10.95;;;4.35;;
12476;SDS011;6303;51.504;6.300;2023-06-26T07:18:22;7.28;;;4.35;;
12476;SDS011;6303;51.504;6.300;2023-06-26T07:20:49;7.60;;;4.30;;
12476;SDS011;6303;51.504;6.300;2023-06-26T07:23:18;9.63;;;4.47;;
12476;SDS011;6303;51.504;6.300;2023-06-26T07:25:45;8.27;;;4.40;;
12476;SDS011;6303;51.504;6.300;2023-06-26T07:28:12;7.70;;;4.38;;
12476;SDS011;6303;51.504;6.300;2023-06-26T07:30:39;7.85;;;4.25;;
12476;SDS011;6303;51.504;6.300;2023-06-26T07:33:06;8.68;;;4.45;;
12476;SDS011;6303;51.504;6.300;2023-06-26T07:35:33;8.57;;;4.25;;
12476;SDS011;6303;51.504;6.300;2023-06-26T07:38:00;6.65;;;4.40;;
12476;SDS011;6303;51.504;6.300;2023-06-26T07:40:29;7.63;;;4.57;;
12476;SDS011;6303;51.504;6.300;2023-06-26T07:42:56;7.00;;;3.97;;
12476;SDS011;6303;51.504;6.300;2023-06-26T07:45:23;7.18;;;4.18;;
12476;SDS011;6303;51.504;6.300;2023-06-26T07:47:51;8.45;;;4.57;;
12476;SDS011;6303;51.504;6.300;2023-06-26T07:50:18;6.82;;;4.38;;
12476;SDS011;6303;51.504;6.300;2023-06-26T07:52:47;7.47;;;4.22;;
12476;SDS011;6303;51.504;6.300;2023-06-26T07:55:15;7.35;;;4.25;;
12476;SDS011;6303;51.504;6.300;2023-06-26T07:57:43;9.68;;;4.18;;
12476;SDS011;6303;51.504;6.300;2023-06-26T08:00:11;7.50;;;4.00;;
12476;SDS011;6303;51.504;6.300;2023-06-26T08:02:41;7.65;;;4.05;;
12476;SDS011;6303;51.504;6.300;2023-06-26T08:05:08;9.27;;;4.22;;
12476;SDS011;6303;51.504;6.300;2023-06-26T08:07:35;6.75;;;3.78;;
12476;SDS011;6303;51.504;6.300;2023-06-26T08:10:02;6.78;;;3.92;;
12476;SDS011;6303;51.504;6.300;2023-06-26T08:12:29;7.40;;;4.05;;
12476;SDS011;6303;51.504;6.300;2023-06-26T08:14:58;6.93;;;4.00;;
12476;SDS011;6303;51.504;6.300;2023-06-26T08:17:27;6.88;;;3.95;;
12476;SDS011;6303;51.504;6.300;2023-06-26T08:19:54;7.68;;;4.10;;
12476;SDS011;6303;51.504;6.300;2023-06-26T08:22:21;8.00;;;3.90;;
12476;SDS011;6303;51.504;6.300;2023-06-26T08:24:48;5.97;;;4.00;;
12476;SDS011;6303;51.504;6.300;2023-06-26T08:27:15;10.60;;;4.20;;
12476;SDS011;6303;51.504;6.300;2023-06-26T08:29:42;5.60;;;3.47;;
12476;SDS011;6303;51.504;6.300;2023-06-26T08:32:10;7.65;;;4.05;;
12476;SDS011;6303;51.504;6.300;2023-06-26T08:34:37;7.97;;;4.15;;
12476;SDS011;6303;51.504;6.300;2023-06-26T08:37:05;5.97;;;3.40;;
12476;SDS011;6303;51.504;6.300;2023-06-26T08:39:34;6.32;;;3.58;;
12476;SDS011;6303;51.504;6.300;2023-06-26T08:42:01;6.25;;;3.85;;
12476;SDS011;6303;51.504;6.300;2023-06-26T08:44:28;13.30;;;4.38;;
12476;SDS011;6303;51.504;6.300;2023-06-26T08:46:55;7.53;;;4.10;;
12476;SDS011;6303;51.504;6.300;2023-06-26T08:49:28;6.78;;;3.65;;
12476;SDS011;6303;51.504;6.300;2023-06-26T08:52:02;7.45;;;3.55;;
12476;SDS011;6303;51.504;6.300;2023-06-26T08:54:36;7.82;;;4.00;;
12476;SDS011;6303;51.504;6.300;2023-06-26T08:57:09;7.25;;;3.80;;
12476;SDS011;6303;51.504;6.300;2023-06-26T08:59:37;7.13;;;3.67;;
12476;SDS011;6303;51.504;6.300;2023-06-26T09:02:05;8.40;;;3.42;;
12476;SDS011;6303;51.504;6.300;2023-06-26T09:04:34;7.70;;;3.78;;
12476;SDS011;6303;51.504;6.300;2023-06-26T09:07:01;8.57;;;3.65;;
12476;SDS011;6303;51.504;6.300;2023-06-26T09:09:28;5.88;;;3.90;;
12476;SDS011;6303;51.504;6.300;2023-06-26T09:11:55;8.05;;;3.80;;
12476;SDS011;6303;51.504;6.300;2023-06-26T09:14:23;5.53;;;3.88;;
12476;SDS011;6303;51.504;6.300;2023-06-26T09:16:50;6.25;;;3.47;;
12476;SDS011;6303;51.504;6.300;2023-06-26T09:19:17;6.28;;;3.67;;
12476;SDS011;6303;51.504;6.300;2023-06-26T09:21:46;5.93;;;3.60;;
12476;SDS011;6303;51.504;6.300;2023-06-26T09:24:16;5.15;;;3.47;;
12476;SDS011;6303;51.504;6.300;2023-06-26T09:26:43;5.18;;;3.38;;
12476;SDS011;6303;51.504;6.300;2023-06-26T09:29:10;6.10;;;3.55;;
12476;SDS011;6303;51.504;6.300;2023-06-26T09:31:39;6.93;;;3.78;;
12476;SDS011;6303;51.504;6.300;2023-06-26T09:34:06;5.50;;;3.70;;
12476;SDS011;6303;51.504;6.300;2023-06-26T09:36:33;6.53;;;3.78;;
12476;SDS011;6303;51.504;6.300;2023-06-26T09:39:03;5.80;;;3.42;;
12476;SDS011;6303;51.504;6.300;2023-06-26T09:41:33;6.88;;;3.50;;
12476;SDS011;6303;51.504;6.300;2023-06-26T09:44:01;5.13;;;3.22;;
12476;SDS011;6303;51.504;6.300;2023-06-26T09:46:29;6.13;;;3.72;;
12476;SDS011;6303;51.504;6.300;2023-06-26T09:49:01;5.15;;;3.58;;
12476;SDS011;6303;51.504;6.300;2023-06-26T09:51:30;4.97;;;3.55;;
12476;SDS011;6303;51.504;6.300;2023-06-26T09:53:57;6.35;;;4.00;;
12476;SDS011;6303;51.504;6.300;2023-06-26T09:56:26;4.40;;;3.28;;
12476;SDS011;6303;51.504;6.300;2023-06-26T09:58:55;4.47;;;3.05;;
12476;SDS011;6303;51.504;6.300;2023-06-26T10:01:23;4.32;;;3.25;;
12476;SDS011;6303;51.504;6.300;2023-06-26T10:03:50;4.95;;;2.88;;
12476;SDS011;6303;51.504;6.300;2023-06-26T10:06:18;2.90;;;2.63;;
12476;SDS011;6303;51.504;6.300;2023-06-26T10:08:48;4.45;;;2.55;;
12476;SDS011;6303;51.504;6.300;2023-06-26T10:11:18;2.97;;;2.50;;
12476;SDS011;6303;51.504;6.300;2023-06-26T10:13:49;3.83;;;2.58;;
12476;SDS011;6303;51.504;6.300;2023-06-26T10:16:19;4.15;;;2.65;;
12476;SDS011;6303;51.504;6.300;2023-06-26T10:18:52;3.35;;;2.22;;
12476;SDS011;6303;51.504;6.300;2023-06-26T10:21:20;3.03;;;2.20;;
12476;SDS011;6303;51.504;6.300;2023-06-26T10:23:50;3.72;;;2.30;;
12476;SDS011;6303;51.504;6.300;2023-06-26T10:26:19;5.57;;;2.30;;
12476;SDS011;6303;51.504;6.300;2023-06-26T10:28:49;5.13;;;2.35;;
12476;SDS011;6303;51.504;6.300;2023-06-26T10:31:18;3.75;;;1.90;;
12476;SDS011;6303;51.504;6.300;2023-06-26T10:33:47;3.60;;;1.90;;
12476;SDS011;6303;51.504;6.300;2023-06-26T10:36:15;3.08;;;2.25;;
12476;SDS011;6303;51.504;6.300;2023-06-26T10:38:50;2.10;;;1.90;;
12476;SDS011;6303;51.504;6.300;2023-06-26T10:41:19;2.22;;;2.00;;
12476;SDS011;6303;51.504;6.300;2023-06-26T10:43:52;3.30;;;1.77;;
12476;SDS011;6303;51.504;6.300;2023-06-26T10:46:33;2.58;;;1.90;;
12476;SDS011;6303;51.504;6.300;2023-06-26T10:49:14;2.30;;;1.85;;
12476;SDS011;6303;51.504;6.300;2023-06-26T10:51:45;2.03;;;1.67;;
12476;SDS011;6303;51.504;6.300;2023-06-26T10:54:14;2.65;;;1.80;;
12476;SDS011;6303;51.504;6.300;2023-06-26T10:56:42;2.65;;;2.10;;
12476;SDS011;6303;51.504;6.300;2023-06-26T10:59:12;2.90;;;1.70;;
12476;SDS011;6303;51.504;6.300;2023-06-26T11:01:41;4.13;;;1.88;;
12476;SDS011;6303;51.504;6.300;2023-06-26T11:04:09;3.58;;;1.77;;
12476;SDS011;6303;51.504;6.300;2023-06-26T11:06:37;2.03;;;1.73;;
12476;SDS011;6303;51.504;6.300;2023-06-26T11:09:09;2.63;;;1.52;;
12476;SDS011;6303;51.504;6.300;2023-06-26T11:11:56;3.08;;;1.60;;
12476;SDS011;6303;51.504;6.300;2023-06-26T11:14:28;2.30;;;1.77;;
12476;SDS011;6303;51.504;6.300;2023-06-26T11:16:57;3.13;;;1.75;;
12476;SDS011;6303;51.504;6.300;2023-06-26T11:19:25;3.33;;;1.83;;
12476;SDS011;6303;51.504;6.300;2023-06-26T11:21:57;1.55;;;1.45;;
12476;SDS011;6303;51.504;6.300;2023-06-26T11:24:25;2.47;;;1.60;;
12476;SDS011;6303;51.504;6.300;2023-06-26T11:26:54;1.50;;;1.40;;
12476;SDS011;6303;51.504;6.300;2023-06-26T11:29:25;4.40;;;1.50;;
12476;SDS011;6303;51.504;6.300;2023-06-26T11:31:59;2.08;;;1.60;;
12476;SDS011;6303;51.504;6.300;2023-06-26T11:34:31;2.38;;;1.42;;
12476;SDS011;6303;51.504;6.300;2023-06-26T11:36:58;2.90;;;1.50;;
12476;SDS011;6303;51.504;6.300;2023-06-26T11:39:28;4.10;;;1.60;;
12476;SDS011;6303;51.504;6.300;2023-06-26T11:41:55;1.83;;;1.50;;
12476;SDS011;6303;51.504;6.300;2023-06-26T11:44:22;2.95;;;1.60;;
12476;SDS011;6303;51.504;6.300;2023-06-26T11:46:53;2.88;;;1.60;;
12476;SDS011;6303;51.504;6.300;2023-06-26T11:49:22;2.45;;;1.48;;
12476;SDS011;6303;51.504;6.300;2023-06-26T11:51:51;2.33;;;1.83;;
12476;SDS011;6303;51.504;6.300;2023-06-26T11:54:24;1.98;;;1.75;;
12476;SDS011;6303;51.504;6.300;2023-06-26T11:56:53;1.95;;;1.55;;
12476;SDS011;6303;51.504;6.300;2023-06-26T11:59:22;1.80;;;1.48;;
12476;SDS011;6303;51.504;6.300;2023-06-26T12:01:50;3.33;;;1.67;;
12476;SDS011;6303;51.504;6.300;2023-06-26T12:04:18;1.73;;;1.52;;
12476;SDS011;6303;51.504;6.300;2023-06-26T12:06:48;3.58;;;1.63;;
12476;SDS011;6303;51.504;6.300;2023-06-26T12:09:22;5.38;;;1.52;;
12476;SDS011;6303;51.504;6.300;2023-06-26T12:11:51;3.45;;;1.55;;
12476;SDS011;6303;51.504;6.300;2023-06-26T12:14:20;2.08;;;1.65;;
12476;SDS011;6303;51.504;6.300;2023-06-26T12:16:48;2.10;;;1.70;;
12476;SDS011;6303;51.504;6.300;2023-06-26T12:19:15;4.68;;;1.70;;
12476;SDS011;6303;51.504;6.300;2023-06-26T12:21:48;3.03;;;1.60;;
12476;SDS011;6303;51.504;6.300;2023-06-26T12:24:18;3.08;;;1.67;;
12476;SDS011;6303;51.504;6.300;2023-06-26T12:26:46;2.10;;;1.58;;
12476;SDS011;6303;51.504;6.300;2023-06-26T12:29:17;3.47;;;1.60;;
12476;SDS011;6303;51.504;6.300;2023-06-26T12:31:45;2.78;;;1.63;;
12476;SDS011;6303;51.504;6.300;2023-06-26T12:34:17;2.90;;;1.40;;
12476;SDS011;6303;51.504;6.300;2023-06-26T12:36:46;2.90;;;1.40;;
12476;SDS011;6303;51.504;6.300;2023-06-26T12:39:15;4.03;;;1.60;;
12476;SDS011;6303;51.504;6.300;2023-06-26T12:41:44;2.58;;;1.50;;
12476;SDS011;6303;51.504;6.300;2023-06-26T12:44:19;3.53;;;1.70;;
12476;SDS011;6303;51.504;6.300;2023-06-26T12:46:47;2.15;;;1.75;;
12476;SDS011;6303;51.504;6.300;2023-06-26T12:49:14;2.28;;;1.70;;
12476;SDS011;6303;51.504;6.300;2023-06-26T12:51:43;2.40;;;1.40;;
12476;SDS011;6303;51.504;6.300;2023-06-26T12:54:11;1.70;;;1.60;;
12476;SDS011;6303;51.504;6.300;2023-06-26T12:56:39;2.50;;;1.70;;
12476;SDS011;6303;51.504;6.300;2023-06-26T12:59:06;2.35;;;2.10;;
12476;SDS011;6303;51.504;6.300;2023-06-26T13:01:33;2.78;;;1.70;;
12476;SDS011;6303;51.504;6.300;2023-06-26T13:04:00;3.88;;;1.70;;
12476;SDS011;6303;51.504;6.300;2023-06-26T13:06:27;3.72;;;1.70;;
12476;SDS011;6303;51.504;6.300;2023-06-26T13:08:54;3.00;;;1.73;;
12476;SDS011;6303;51.504;6.300;2023-06-26T13:11:22;3.83;;;1.90;;
12476;SDS011;6303;51.504;6.300;2023-06-26T13:13:49;2.13;;;1.58;;
12476;SDS011;6303;51.504;6.300;2023-06-26T13:16:16;1.73;;;1.40;;
12476;SDS011;6303;51.504;6.300;2023-06-26T13:18:44;3.30;;;1.70;;
12476;SDS011;6303;51.504;6.300;2023-06-26T13:21:12;3.00;;;1.60;;
12476;SDS011;6303;51.504;6.300;2023-06-26T13:23:39;5.38;;;1.50;;
12476;SDS011;6303;51.504;6.300;2023-06-26T13:26:07;2.25;;;1.60;;
12476;SDS011;6303;51.504;6.300;2023-06-26T13:28:35;2.22;;;1.70;;
12476;SDS011;6303;51.504;6.300;2023-06-26T13:31:03;3.17;;;1.60;;
12476;SDS011;6303;51.504;6.300;2023-06-26T13:33:31;2.67;;;1.38;;
12476;SDS011;6303;51.504;6.300;2023-06-26T13:35:58;2.95;;;1.42;;
12476;SDS011;6303;51.504;6.300;2023-06-26T13:38:26;2.88;;;1.60;;
12476;SDS011;6303;51.504;6.300;2023-06-26T13:40:54;1.60;;;1.50;;
12476;SDS011;6303;51.504;6.300;2023-06-26T13:43:22;1.50;;;1.40;;
12476;SDS011;6303;51.504;6.300;2023-06-26T13:45:51;1.60;;;1.50;;
12476;SDS011;6303;51.504;6.300;2023-06-26T13:48:18;2.38;;;1.52;;
12476;SDS011;6303;51.504;6.300;2023-06-26T13:50:45;3.13;;;1.50;;
12476;SDS011;6303;51.504;6.300;2023-06-26T13:53:12;1.60;;;1.50;;
12476;SDS011;6303;51.504;6.300;2023-06-26T13:55:40;2.42;;;1.63;;
12476;SDS011;6303;51.504;6.300;2023-06-26T13:58:07;2.25;;;1.42;;
12476;SDS011;6303;51.504;6.300;2023-06-26T14:00:36;1.85;;;1.27;;
12476;SDS011;6303;51.504;6.300;2023-06-26T14:03:05;1.73;;;1.50;;
12476;SDS011;6303;51.504;6.300;2023-06-26T14:05:32;1.90;;;1.25;;
12476;SDS011;6303;51.504;6.300;2023-06-26T14:08:02;1.63;;;1.30;;
12476;SDS011;6303;51.504;6.300;2023-06-26T14:10:30;1.58;;;1.48;;
12476;SDS011;6303;51.504;6.300;2023-06-26T14:12:58;4.30;;;1.50;;
12476;SDS011;6303;51.504;6.300;2023-06-26T14:15:26;1.60;;;1.45;;
12476;SDS011;6303;51.504;6.300;2023-06-26T14:17:53;2.35;;;1.73;;
12476;SDS011;6303;51.504;6.300;2023-06-26T14:20:22;2.67;;;1.60;;
12476;SDS011;6303;51.504;6.300;2023-06-26T14:22:49;2.38;;;1.60;;
12476;SDS011;6303;51.504;6.300;2023-06-26T14:25:16;2.55;;;1.40;;
12476;SDS011;6303;51.504;6.300;2023-06-26T14:27:43;1.45;;;1.35;;
12476;SDS011;6303;51.504;6.300;2023-06-26T14:30:11;1.63;;;1.50;;
12476;SDS011;6303;51.504;6.300;2023-06-26T14:32:38;1.60;;;1.50;;
12476;SDS011;6303;51.504;6.300;2023-06-26T14:35:05;2.65;;;1.45;;
12476;SDS011;6303;51.504;6.300;2023-06-26T14:37:35;3.17;;;1.55;;
12476;SDS011;6303;51.504;6.300;2023-06-26T14:40:05;1.75;;;1.50;;
12476;SDS011;6303;51.504;6.300;2023-06-26T14:42:33;3.20;;;1.45;;
12476;SDS011;6303;51.504;6.300;2023-06-26T14:45:00;2.40;;;1.88;;
12476;SDS011;6303;51.504;6.300;2023-06-26T14:47:27;2.08;;;1.58;;
12476;SDS011;6303;51.504;6.300;2023-06-26T14:49:54;2.00;;;1.40;;
12476;SDS011;6303;51.504;6.300;2023-06-26T14:52:21;2.60;;;1.63;;
12476;SDS011;6303;51.504;6.300;2023-06-26T14:54:50;3.10;;;1.45;;
12476;SDS011;6303;51.504;6.300;2023-06-26T14:57:17;4.03;;;1.67;;
12476;SDS011;6303;51.504;6.300;2023-06-26T14:59:44;1.65;;;1.45;;
12476;SDS011;6303;51.504;6.300;2023-06-26T15:02:11;1.60;;;1.50;;
12476;SDS011;6303;51.504;6.300;2023-06-26T15:04:39;1.92;;;1.42;;
12476;SDS011;6303;51.504;6.300;2023-06-26T15:07:06;1.38;;;1.27;;
12476;SDS011;6303;51.504;6.300;2023-06-26T15:09:33;1.48;;;1.30;;